Time;durP1;ratioP1;P1;durP2;ratioP2;P2;SDS_P1;SDS_P2;PMS_P1;PMS_P2;Temp;Humidity;BMP_temperature;BMP_pressure;BME280_temperature;BME280_humidity;BME280_pressure;Samples;Min_cycle;Max_cycle;Signal;HPM_P1;HPM_P2
2021/07/06 00:00:54;;;;;;;7.18;6.72;;;10.20;99.90;;;;;;5033411;28;20022;-68
2021/07/06 00:03:22;;;;;;;6.72;6.10;;;10.30;99.90;;;;;;5033323;28;20032;-63
2021/07/06 00:05:50;;;;;;;6.30;6.00;;;10.30;99.90;;;;;;5033309;28;20383;-67
2021/07/06 00:08:17;;;;;;;5.95;5.57;;;10.40;99.90;;;;;;5032994;28;20029;-62
2021/07/06 00:10:44;;;;;;;5.95;5.60;;;10.50;99.90;;;;;;5032965;28;20033;-61
2021/07/06 00:13:12;;;;;;;5.72;5.40;;;10.70;99.90;;;;;;5032839;28;20037;-61
2021/07/06 00:15:39;;;;;;;6.00;5.45;;;10.70;99.90;;;;;;5032857;28;20492;-61
2021/07/06 00:18:07;;;;;;;6.07;5.47;;;10.90;99.90;;;;;;5033010;28;20018;-61
2021/07/06 00:20:35;;;;;;;5.70;5.30;;;11.00;99.90;;;;;;5032799;28;20041;-62
2021/07/06 00:23:04;;;;;;;5.80;5.30;;;11.10;99.90;;;;;;5035062;28;20100;-62
2021/07/06 00:25:32;;;;;;;6.47;5.40;;;11.30;99.90;;;;;;5035472;28;20121;-63
2021/07/06 00:28:00;;;;;;;6.10;5.85;;;11.40;99.90;;;;;;5036648;28;20195;-63
2021/07/06 00:30:28;;;;;;;5.80;5.40;;;11.50;99.90;;;;;;5037129;28;20033;-65
2021/07/06 00:32:56;;;;;;;5.90;5.50;;;11.80;99.90;;;;;;5036682;28;20497;-65
2021/07/06 00:35:24;;;;;;;14.25;5.78;;;11.90;99.90;;;;;;5035330;28;20022;-67
2021/07/06 00:37:52;;;;;;;5.57;5.18;;;12.00;99.90;;;;;;5036655;28;20394;-64
2021/07/06 00:40:19;;;;;;;5.70;5.15;;;12.00;99.90;;;;;;5036666;28;20017;-65
2021/07/06 00:42:49;;;;;;;6.53;5.93;;;12.10;99.90;;;;;;5035571;28;20057;-66
2021/07/06 00:45:17;;;;;;;5.90;5.55;;;12.30;99.90;;;;;;5036372;28;20108;-65
2021/07/06 00:47:45;;;;;;;5.95;5.60;;;12.40;99.90;;;;;;5035460;28;20060;-65
2021/07/06 00:50:24;;;;;;;6.38;5.63;;;12.20;99.90;;;;;;5036492;28;20030;-65
2021/07/06 00:52:52;;;;;;;5.50;5.10;;;12.20;99.90;;;;;;5036461;28;20029;-65
2021/07/06 00:55:23;;;;;;;5.35;5.00;;;12.20;99.90;;;;;;5036615;28;20017;-67
2021/07/06 00:57:51;;;;;;;5.82;4.85;;;12.10;99.90;;;;;;5036361;28;20390;-65
2021/07/06 01:00:20;;;;;;;5.43;4.40;;;12.10;99.90;;;;;;5035059;28;20029;-65
2021/07/06 01:02:48;;;;;;;5.15;4.75;;;12.20;99.90;;;;;;5036484;28;20032;-65
2021/07/06 01:05:20;;;;;;;4.40;4.10;;;12.30;99.90;;;;;;5036322;28;20054;-65
2021/07/06 01:07:48;;;;;;;5.53;4.13;;;12.10;99.90;;;;;;5036299;28;20049;-65
2021/07/06 01:10:16;;;;;;;4.80;4.40;;;12.10;99.90;;;;;;5036111;28;20061;-65
2021/07/06 01:12:45;;;;;;;5.00;4.63;;;12.20;99.90;;;;;;5036164;28;20471;-65
2021/07/06 01:15:16;;;;;;;4.85;4.55;;;12.40;99.90;;;;;;5036132;28;20022;-70
2021/07/06 01:17:44;;;;;;;5.13;4.45;;;12.70;99.90;;;;;;5036445;28;20036;-68
2021/07/06 01:20:19;;;;;;;4.85;4.18;;;12.70;99.90;;;;;;5035904;28;20087;-68
2021/07/06 01:22:47;;;;;;;5.68;5.28;;;12.70;99.90;;;;;;5035900;28;20425;-67
2021/07/06 01:25:14;;;;;;;5.80;4.80;;;12.90;99.90;;;;;;5035800;28;20502;-67
2021/07/06 01:27:43;;;;;;;5.25;4.80;;;13.00;99.90;;;;;;5036057;28;20021;-68
2021/07/06 01:30:14;;;;;;;4.47;4.15;;;13.10;99.90;;;;;;5034597;28;20021;-70
2021/07/06 01:32:43;;;;;;;5.07;4.60;;;13.10;99.90;;;;;;5035736;28;20018;-67
2021/07/06 01:35:13;;;;;;;5.00;4.60;;;13.20;99.90;;;;;;5034991;28;20052;-71
2021/07/06 01:37:55;;;;;;;5.93;4.85;;;13.30;99.90;;;;;;5034514;28;20438;-71
2021/07/06 01:40:24;;;;;;;5.85;4.65;;;13.30;99.90;;;;;;5035907;28;20034;-68
2021/07/06 01:42:53;;;;;;;5.40;4.90;;;13.40;99.90;;;;;;5035662;28;20026;-69
2021/07/06 01:45:25;;;;;;;5.13;4.72;;;13.40;99.90;;;;;;5035691;28;20575;-67
2021/07/06 01:47:55;;;;;;;5.20;4.80;;;13.50;99.90;;;;;;5035599;28;20104;-68
2021/07/06 01:50:37;;;;;;;5.15;4.75;;;13.60;99.90;;;;;;5035386;28;20032;-68
2021/07/06 01:53:07;;;;;;;5.53;4.68;;;13.80;99.90;;;;;;5035307;28;20028;-69
2021/07/06 01:55:46;;;;;;;4.97;4.68;;;13.70;99.90;;;;;;5035379;28;20021;-70
2021/07/06 01:58:17;;;;;;;5.10;4.60;;;13.50;99.90;;;;;;5035352;28;20104;-63
2021/07/06 02:01:02;;;;;;;;;;;13.70;99.90;;;;;;5035685;28;20029;-63
2021/07/06 02:03:29;;;;;;;8.07;5.20;;;14.00;99.90;;;;;;5035210;28;19913;-64
2021/07/06 02:05:58;;;;;;;4.95;4.47;;;14.10;99.90;;;;;;5035066;28;20033;-64
2021/07/06 02:08:26;;;;;;;5.05;4.65;;;14.10;99.90;;;;;;5035072;28;20051;-63
2021/07/06 02:10:56;;;;;;;5.90;4.70;;;14.00;99.90;;;;;;5034764;28;20028;-63
2021/07/06 02:13:26;;;;;;;4.68;4.38;;;13.90;99.90;;;;;;5035056;28;20608;-63
2021/07/06 02:15:56;;;;;;;5.30;4.47;;;13.80;99.90;;;;;;5034839;28;20078;-63
2021/07/06 02:18:26;;;;;;;4.50;4.10;;;13.70;99.90;;;;;;5034915;28;20519;-63
2021/07/06 02:20:56;;;;;;;4.43;3.90;;;13.90;99.90;;;;;;5033801;28;20301;-63
2021/07/06 02:23:24;;;;;;;6.43;4.30;;;14.00;99.90;;;;;;5034897;28;20025;-64
2021/07/06 02:25:53;;;;;;;4.35;3.95;;;14.00;99.90;;;;;;5034584;28;20029;-63
2021/07/06 02:28:21;;;;;;;4.00;3.70;;;14.10;99.90;;;;;;5034440;28;20390;-63
2021/07/06 02:30:49;;;;;;;4.07;3.58;;;14.00;99.90;;;;;;5034572;28;20021;-63
2021/07/06 02:33:18;;;;;;;3.97;3.55;;;14.10;99.90;;;;;;5034675;28;20029;-63
2021/07/06 02:35:46;;;;;;;3.70;3.40;;;14.10;99.90;;;;;;5034370;28;20025;-64
2021/07/06 02:38:14;;;;;;;3.90;3.60;;;14.10;99.90;;;;;;5034355;28;20018;-62
2021/07/06 02:40:41;;;;;;;3.83;3.60;;;14.20;99.90;;;;;;5034357;28;20018;-63
2021/07/06 02:43:09;;;;;;;7.03;4.57;;;14.30;99.90;;;;;;5034293;28;20100;-63
2021/07/06 02:45:36;;;;;;;3.63;3.42;;;14.60;99.90;;;;;;5034640;28;20029;-65
2021/07/06 02:48:04;;;;;;;3.80;3.30;;;14.60;99.90;;;;;;5034181;28;20088;-60
2021/07/06 02:50:32;;;;;;;4.40;3.70;;;14.40;99.90;;;;;;5034172;28;20033;-66
2021/07/06 02:53:00;;;;;;;4.45;4.05;;;14.60;99.90;;;;;;5034656;28;20084;-65
2021/07/06 02:55:27;;;;;;;8.02;4.50;;;14.70;99.90;;;;;;5033991;28;20028;-62
2021/07/06 02:57:55;;;;;;;4.40;4.10;;;14.80;99.90;;;;;;5033949;28;20025;-64
2021/07/06 03:00:31;;;;;;;4.57;4.20;;;14.80;99.80;;;;;;5034333;28;20026;-62
2021/07/06 03:03:08;;;;;;;4.50;4.10;;;14.80;99.90;;;;;;5034116;28;20481;-63
2021/07/06 03:05:37;;;;;;;4.50;4.10;;;14.90;99.90;;;;;;5033776;28;20379;-63
2021/07/06 03:08:06;;;;;;;4.38;4.00;;;14.80;99.90;;;;;;5033871;28;20029;-63
2021/07/06 03:10:39;;;;;;;4.20;3.75;;;14.90;99.90;;;;;;5033694;28;20056;-62
2021/07/06 03:13:08;;;;;;;4.00;3.70;;;15.20;99.70;;;;;;5033968;28;20386;-63
2021/07/06 03:15:37;;;;;;;3.60;3.40;;;15.20;99.90;;;;;;5033744;28;20017;-62
2021/07/06 03:18:10;;;;;;;3.65;3.35;;;15.30;99.90;;;;;;5033666;28;20030;-63
2021/07/06 03:20:38;;;;;;;3.40;3.20;;;15.50;99.90;;;;;;5033695;28;20104;-63
2021/07/06 03:23:05;;;;;;;3.70;3.40;;;15.40;99.90;;;;;;5033801;28;20482;-62
2021/07/06 03:25:34;;;;;;;3.58;3.30;;;15.40;99.40;;;;;;5033321;28;20025;-63
2021/07/06 03:28:03;;;;;;;3.55;3.20;;;15.40;99.90;;;;;;5033450;28;20029;-63
2021/07/06 03:30:36;;;;;;;3.85;3.65;;;15.40;99.70;;;;;;5033407;28;20550;-63
2021/07/06 03:33:09;;;;;;;5.93;3.70;;;15.50;99.90;;;;;;5034402;28;20532;-66
2021/07/06 03:35:38;;;;;;;4.18;3.88;;;15.40;99.90;;;;;;5033704;28;20022;-62
2021/07/06 03:38:06;;;;;;;4.38;3.95;;;15.50;99.90;;;;;;5033585;28;20108;-62
2021/07/06 03:40:35;;;;;;;3.80;3.50;;;15.60;99.90;;;;;;5033488;28;20390;-62
2021/07/06 03:43:04;;;;;;;3.92;3.70;;;15.50;99.90;;;;;;5032243;28;20029;-62
2021/07/06 03:45:31;;;;;;;4.28;3.88;;;15.50;99.90;;;;;;5032026;28;20029;-62
2021/07/06 03:47:59;;;;;;;3.83;3.47;;;15.50;99.90;;;;;;5033217;28;20478;-62
2021/07/06 03:50:27;;;;;;;3.75;3.35;;;15.40;99.90;;;;;;5033300;28;20044;-62
2021/07/06 03:52:57;;;;;;;4.03;3.83;;;15.40;99.90;;;;;;5033770;28;20036;-62
2021/07/06 03:55:28;;;;;;;4.20;3.90;;;15.30;99.90;;;;;;5033310;28;20495;-62
2021/07/06 03:57:56;;;;;;;4.03;3.83;;;15.30;99.90;;;;;;5031869;28;20072;-62
2021/07/06 04:00:26;;;;;;;6.25;4.03;;;15.40;99.90;;;;;;5033426;28;20048;-62
2021/07/06 04:02:55;;;;;;;4.13;3.80;;;15.50;99.90;;;;;;5033268;28;20033;-62
2021/07/06 04:05:22;;;;;;;3.38;3.17;;;15.70;99.90;;;;;;5033006;28;20050;-62
2021/07/06 04:07:50;;;;;;;4.07;3.78;;;15.50;99.90;;;;;;5033072;28;20068;-62
2021/07/06 04:10:18;;;;;;;4.32;4.00;;;15.50;99.80;;;;;;5032927;28;20026;-61
2021/07/06 04:12:47;;;;;;;4.30;3.90;;;15.40;99.60;;;;;;5033225;28;20482;-61
2021/07/06 04:15:16;;;;;;;3.50;3.30;;;15.50;99.70;;;;;;5033206;28;20104;-64
2021/07/06 04:17:43;;;;;;;5.28;3.75;;;15.40;99.90;;;;;;5032871;28;20478;-62
2021/07/06 04:20:13;;;;;;;4.03;3.83;;;15.50;99.50;;;;;;5033162;28;20026;-62
2021/07/06 04:22:41;;;;;;;4.18;3.88;;;15.40;99.10;;;;;;5032984;28;20454;-62
2021/07/06 04:25:09;;;;;;;3.63;3.33;;;15.30;99.70;;;;;;5033332;28;20454;-61
2021/07/06 04:27:37;;;;;;;4.13;3.00;;;15.30;99.00;;;;;;5032848;28;20034;-64
2021/07/06 04:30:07;;;;;;;3.90;3.70;;;15.30;99.60;;;;;;5032852;28;20061;-64
2021/07/06 04:32:34;;;;;;;3.63;2.83;;;15.30;99.60;;;;;;5032935;28;20018;-64
2021/07/06 04:35:02;;;;;;;3.38;3.10;;;15.30;99.90;;;;;;5032940;28;20391;-61
2021/07/06 04:37:29;;;;;;;3.40;3.20;;;15.30;99.50;;;;;;5032924;28;20025;-61
2021/07/06 04:39:57;;;;;;;4.28;3.88;;;15.30;99.40;;;;;;5032926;28;20029;-63
2021/07/06 04:42:24;;;;;;;4.50;3.25;;;15.30;99.20;;;;;;5032719;28;20057;-61
2021/07/06 04:44:52;;;;;;;4.32;3.92;;;15.30;98.80;;;;;;5032998;28;20513;-65
2021/07/06 04:47:19;;;;;;;4.20;3.80;;;15.20;99.20;;;;;;5032952;28;20247;-62
2021/07/06 04:49:46;;;;;;;4.13;3.83;;;15.20;99.90;;;;;;5032911;28;20025;-62
2021/07/06 04:52:14;;;;;;;3.45;3.30;;;15.10;99.00;;;;;;5032870;28;20470;-64
2021/07/06 04:54:41;;;;;;;4.43;3.88;;;15.20;99.60;;;;;;5032629;28;20565;-64
2021/07/06 04:57:09;;;;;;;4.53;4.07;;;15.10;99.30;;;;;;5031503;28;20108;-64
2021/07/06 04:59:36;;;;;;;4.40;3.85;;;15.10;99.80;;;;;;5032602;28;20022;-62
2021/07/06 05:02:05;;;;;;;4.20;3.85;;;15.10;99.60;;;;;;5032543;28;20021;-63
2021/07/06 05:04:33;;;;;;;4.07;3.88;;;15.00;98.70;;;;;;5032467;28;20049;-63
2021/07/06 05:07:01;;;;;;;4.00;3.80;;;14.90;99.90;;;;;;5032583;28;20087;-63
2021/07/06 05:09:30;;;;;;;5.00;4.13;;;14.90;99.90;;;;;;5033588;28;20026;-62
2021/07/06 05:11:57;;;;;;;5.78;3.92;;;15.00;99.60;;;;;;5036119;28;20478;-63
2021/07/06 05:14:25;;;;;;;4.30;3.70;;;15.00;99.10;;;;;;5036310;28;20128;-63
2021/07/06 05:16:52;;;;;;;4.05;3.75;;;15.00;99.60;;;;;;5035999;28;20096;-64
2021/07/06 05:19:19;;;;;;;4.20;3.90;;;15.00;99.40;;;;;;5036187;28;20033;-64
2021/07/06 05:21:47;;;;;;;4.05;3.75;;;15.00;99.50;;;;;;5035910;28;20459;-63
2021/07/06 05:24:14;;;;;;;4.40;4.00;;;15.00;99.90;;;;;;5036050;28;20394;-63
2021/07/06 05:26:42;;;;;;;3.78;3.40;;;15.00;99.30;;;;;;5035819;28;20017;-62
2021/07/06 05:29:09;;;;;;;3.60;3.40;;;15.00;98.80;;;;;;5035620;28;20312;-67
2021/07/06 05:31:36;;;;;;;3.40;2.90;;;15.00;99.00;;;;;;5035810;28;20096;-68
2021/07/06 05:34:04;;;;;;;3.85;3.58;;;15.00;97.40;;;;;;5035702;28;20013;-68
2021/07/06 05:36:31;;;;;;;4.00;3.70;;;15.10;98.00;;;;;;5035618;28;20030;-65
2021/07/06 05:38:58;;;;;;;3.80;3.50;;;15.10;97.60;;;;;;5035653;28;20096;-66
2021/07/06 05:41:26;;;;;;;3.88;3.67;;;15.00;97.40;;;;;;5035542;28;20053;-67
2021/07/06 05:43:53;;;;;;;3.65;3.35;;;15.00;98.00;;;;;;5035771;28;20486;-67
2021/07/06 05:46:21;;;;;;;4.07;3.80;;;14.90;98.10;;;;;;5035519;28;20363;-66
2021/07/06 05:48:48;;;;;;;3.60;3.10;;;14.80;98.90;;;;;;5035578;28;20029;-68
2021/07/06 05:51:16;;;;;;;4.57;3.42;;;14.70;98.60;;;;;;5035225;28;20026;-69
2021/07/06 05:53:47;;;;;;;4.90;3.97;;;14.50;99.40;;;;;;5035487;28;20056;-68
2021/07/06 05:56:15;;;;;;;4.88;4.10;;;14.50;98.40;;;;;;5035370;28;20029;-69
2021/07/06 05:58:42;;;;;;;4.50;4.10;;;14.50;98.20;;;;;;5035312;28;20033;-65
2021/07/06 06:01:10;;;;;;;3.75;3.53;;;14.50;98.80;;;;;;5035192;28;20033;-66
2021/07/06 06:03:37;;;;;;;3.85;3.50;;;14.40;98.00;;;;;;5034902;28;20026;-65
2021/07/06 06:06:05;;;;;;;4.10;3.70;;;14.30;99.00;;;;;;5035234;28;20124;-66
2021/07/06 06:08:32;;;;;;;4.32;3.92;;;14.20;98.90;;;;;;5035158;28;20492;-65
2021/07/06 06:10:59;;;;;;;4.78;4.07;;;14.10;99.10;;;;;;5033770;28;20025;-65
2021/07/06 06:13:27;;;;;;;4.20;3.90;;;14.00;99.10;;;;;;5034948;28;20024;-64
2021/07/06 06:15:54;;;;;;;4.38;3.97;;;14.00;99.70;;;;;;5034658;28;20030;-64
2021/07/06 06:18:22;;;;;;;5.28;4.32;;;13.90;98.80;;;;;;5034027;28;20391;-64
2021/07/06 06:20:49;;;;;;;14.57;6.82;;;13.80;99.30;;;;;;5034725;28;20035;-64
2021/07/06 06:23:16;;;;;;;6.05;4.32;;;13.70;99.60;;;;;;5034032;28;20029;-64
2021/07/06 06:25:44;;;;;;;4.80;3.95;;;13.70;99.90;;;;;;5035006;28;20393;-64
2021/07/06 06:28:11;;;;;;;7.57;4.57;;;13.60;99.90;;;;;;5035307;28;20021;-63
2021/07/06 06:30:38;;;;;;;6.63;4.55;;;13.50;99.90;;;;;;5034750;28;20091;-63
2021/07/06 06:33:06;;;;;;;7.30;4.20;;;13.40;99.90;;;;;;5034506;28;20442;-64
2021/07/06 06:35:34;;;;;;;4.60;4.20;;;13.20;99.90;;;;;;5034447;28;20044;-65
2021/07/06 06:38:02;;;;;;;4.63;3.97;;;13.10;99.90;;;;;;5034636;28;20536;-63
2021/07/06 06:40:29;;;;;;;5.63;4.22;;;12.90;99.90;;;;;;5033159;28;20406;-65
2021/07/06 06:42:56;;;;;;;4.70;4.13;;;12.90;99.90;;;;;;5034529;28;20029;-65
2021/07/06 06:45:24;;;;;;;7.10;4.82;;;12.80;99.90;;;;;;5033076;28;20052;-63
2021/07/06 06:47:52;;;;;;;7.45;4.88;;;12.60;99.90;;;;;;5034335;28;20058;-65
2021/07/06 06:50:19;;;;;;;9.45;5.88;;;12.50;99.90;;;;;;5034552;28;20026;-64
2021/07/06 06:52:47;;;;;;;5.07;4.63;;;12.40;99.90;;;;;;5034256;28;20567;-65
2021/07/06 06:55:14;;;;;;;6.15;5.18;;;12.20;99.90;;;;;;5034109;28;20021;-66
2021/07/06 06:57:42;;;;;;;7.57;5.90;;;12.20;99.90;;;;;;5034078;28;20548;-67
2021/07/06 07:00:10;;;;;;;6.55;5.97;;;12.10;99.90;;;;;;5034363;28;20040;-66
2021/07/06 07:02:38;;;;;;;10.63;7.60;;;12.00;99.90;;;;;;5033908;28;20090;-65
2021/07/06 07:05:07;;;;;;;9.07;6.78;;;11.90;99.90;;;;;;5033656;28;20081;-65
2021/07/06 07:07:35;;;;;;;10.93;8.07;;;11.70;99.90;;;;;;5033844;28;20108;-66
2021/07/06 07:10:02;;;;;;;10.57;8.55;;;11.60;99.90;;;;;;5033789;28;20111;-65
2021/07/06 07:12:29;;;;;;;14.25;10.63;;;11.60;99.90;;;;;;5033620;28;20034;-66
2021/07/06 07:14:57;;;;;;;13.50;10.10;;;11.40;99.90;;;;;;5033580;28;20048;-65
2021/07/06 07:17:24;;;;;;;11.93;8.43;;;11.40;99.90;;;;;;5033601;28;20029;-66
2021/07/06 07:19:52;;;;;;;9.70;7.85;;;11.30;99.90;;;;;;5033628;28;20025;-65
2021/07/06 07:22:19;;;;;;;8.05;7.25;;;11.30;99.90;;;;;;5033584;28;20026;-63
2021/07/06 07:24:46;;;;;;;7.28;6.32;;;11.20;99.90;;;;;;5033748;28;20025;-65
2021/07/06 07:27:14;;;;;;;6.70;6.10;;;11.10;99.90;;;;;;5032185;28;20071;-65
2021/07/06 07:29:41;;;;;;;10.25;6.82;;;11.10;99.90;;;;;;5033422;28;20049;-66
2021/07/06 07:32:09;;;;;;;7.28;6.70;;;11.00;99.90;;;;;;5033005;28;20029;-67
2021/07/06 07:34:36;;;;;;;7.35;6.75;;;10.90;99.90;;;;;;5033408;28;20018;-66
2021/07/06 07:37:05;;;;;;;8.35;7.65;;;10.80;99.90;;;;;;5033755;28;20378;-67
2021/07/06 07:39:33;;;;;;;8.13;7.50;;;10.70;99.90;;;;;;5033436;28;20025;-67
2021/07/06 07:42:03;;;;;;;7.70;7.03;;;10.60;99.90;;;;;;5033253;28;20479;-65
2021/07/06 07:44:31;;;;;;;7.50;6.90;;;10.60;99.90;;;;;;5033481;28;20048;-64
2021/07/06 07:46:59;;;;;;;8.75;7.95;;;10.50;99.90;;;;;;5033272;28;20340;-65
2021/07/06 07:49:27;;;;;;;8.65;7.85;;;10.50;99.90;;;;;;5033116;28;20430;-65
2021/07/06 07:51:55;;;;;;;8.93;8.07;;;10.50;99.90;;;;;;5032024;28;20029;-65
2021/07/06 07:54:22;;;;;;;9.20;8.30;;;10.40;99.90;;;;;;5033062;28;20013;-66
2021/07/06 07:56:49;;;;;;;9.85;8.95;;;10.40;99.90;;;;;;5031835;28;20432;-67
2021/07/06 07:59:17;;;;;;;9.88;9.07;;;10.40;99.90;;;;;;5033092;28;20025;-66
2021/07/06 08:01:44;;;;;;;10.63;9.63;;;10.30;99.90;;;;;;5033055;28;20134;-66
2021/07/06 08:04:11;;;;;;;9.50;8.68;;;10.30;99.90;;;;;;5032829;28;20042;-66
2021/07/06 08:06:39;;;;;;;9.88;8.90;;;10.30;99.90;;;;;;5033097;28;20014;-66
2021/07/06 08:09:07;;;;;;;12.85;11.60;;;10.30;99.90;;;;;;5033075;28;20025;-65
2021/07/06 08:11:35;;;;;;;61.05;50.58;;;10.30;99.90;;;;;;5032982;28;20033;-64
2021/07/06 08:14:02;;;;;;;14.30;13.00;;;10.30;99.90;;;;;;5032878;28;20482;-64
2021/07/06 08:16:30;;;;;;;19.30;16.10;;;10.20;99.90;;;;;;5032966;28;20030;-64
2021/07/06 08:18:57;;;;;;;14.93;13.48;;;10.20;99.90;;;;;;5032893;28;20486;-64
2021/07/06 08:21:25;;;;;;;14.80;13.50;;;10.20;99.90;;;;;;5032956;28;20025;-63
2021/07/06 08:23:52;;;;;;;14.75;13.45;;;10.10;99.90;;;;;;5033156;28;20088;-65
2021/07/06 08:26:19;;;;;;;15.70;14.10;;;10.10;99.90;;;;;;5032877;28;20079;-63
2021/07/06 08:28:47;;;;;;;16.55;14.85;;;10.10;99.90;;;;;;5032741;28;20029;-67
2021/07/06 08:31:14;;;;;;;16.50;14.60;;;10.00;99.90;;;;;;5032572;28;20442;-67
2021/07/06 08:33:42;;;;;;;21.02;18.88;;;10.00;99.90;;;;;;5032775;28;20028;-67
2021/07/06 08:36:09;;;;;;;24.15;21.70;;;10.00;99.90;;;;;;5032987;28;20479;-68
2021/07/06 08:38:39;;;;;;;16.27;14.68;;;10.00;99.90;;;;;;5032867;28;20090;-68
2021/07/06 08:41:07;;;;;;;15.77;14.27;;;10.00;99.90;;;;;;5032608;28;20025;-68
2021/07/06 08:43:35;;;;;;;15.38;13.90;;;10.00;99.90;;;;;;5032977;28;20028;-68
2021/07/06 08:46:03;;;;;;;16.17;14.65;;;10.00;99.90;;;;;;5036504;28;20036;-67
2021/07/06 08:48:33;;;;;;;15.15;13.82;;;10.00;99.90;;;;;;5036323;28;20037;-66
2021/07/06 08:51:03;;;;;;;25.38;22.90;;;10.00;99.90;;;;;;5036507;28;20080;-67
2021/07/06 08:53:30;;;;;;;17.92;16.10;;;10.00;99.90;;;;;;5036321;28;20026;-65
2021/07/06 08:55:58;;;;;;;18.02;16.42;;;10.00;99.90;;;;;;5036403;28;20020;-65
2021/07/06 08:58:26;;;;;;;16.85;14.95;;;9.90;99.90;;;;;;5035235;28;20076;-66
2021/07/06 09:00:54;;;;;;;16.95;15.32;;;9.80;99.90;;;;;;5036327;28;20474;-66
2021/07/06 09:03:21;;;;;;;16.83;15.40;;;9.80;99.90;;;;;;5036105;28;20025;-66
2021/07/06 09:06:10;;;;;;;18.13;16.40;;;9.70;99.90;;;;;;5036749;28;20092;-67
2021/07/06 09:08:37;;;;;;;18.75;16.85;;;9.70;99.90;;;;;;5036115;28;20025;-70
2021/07/06 09:11:15;;;;;;;18.75;17.08;;;9.60;99.90;;;;;;5036449;28;20032;-69
2021/07/06 09:13:42;;;;;;;19.80;17.75;;;9.60;99.90;;;;;;5036549;28;20378;-69
2021/07/06 09:16:21;;;;;;;19.88;18.10;;;9.60;99.90;;;;;;5036107;28;20021;-69
2021/07/06 09:18:48;;;;;;;19.58;17.85;;;9.60;99.90;;;;;;5036132;28;20070;-67
2021/07/06 09:21:17;;;;;;;22.23;20.13;;;9.50;99.90;;;;;;5036054;28;20017;-66
2021/07/06 09:23:49;;;;;;;23.02;20.88;;;9.50;99.90;;;;;;5034721;28;20425;-67
2021/07/06 09:26:18;;;;;;;32.88;29.70;;;9.50;99.90;;;;;;5034689;28;20064;-66
2021/07/06 09:28:56;;;;;;;24.45;22.17;;;9.60;99.90;;;;;;5036565;28;20048;-66
2021/07/06 09:31:28;;;;;;;33.00;29.25;;;9.60;99.90;;;;;;5035830;28;20109;-67
2021/07/06 09:34:00;;;;;;;27.48;25.02;;;9.50;99.90;;;;;;5034507;28;20059;-65
2021/07/06 09:36:31;;;;;;;24.42;22.33;;;9.50;99.90;;;;;;5035683;28;20339;-67
2021/07/06 09:39:17;;;;;;;;;;;9.50;99.90;;;;;;5036052;28;20402;-67
2021/07/06 09:42:12;;;;;;;33.85;28.80;;;9.40;99.90;;;;;;5035550;28;19905;-67
2021/07/06 09:44:41;;;;;;;71.28;47.13;;;9.40;99.90;;;;;;5035300;28;20037;-67
2021/07/06 09:47:15;;;;;;;57.67;42.17;;;9.40;99.90;;;;;;5035435;28;20049;-67
2021/07/06 09:49:52;;;;;;;41.42;35.63;;;9.40;99.90;;;;;;5035232;28;20115;-67
2021/07/06 09:52:21;;;;;;;38.15;34.05;;;9.30;99.90;;;;;;5035293;28;20390;-67
2021/07/06 09:54:50;;;;;;;41.42;37.15;;;9.30;99.90;;;;;;5034860;28;20021;-67
2021/07/06 09:57:32;;;;;;;36.20;32.78;;;9.30;99.90;;;;;;5035096;28;20466;-67
2021/07/06 10:00:12;;;;;;;32.72;29.83;;;9.30;99.90;;;;;;5035026;28;20033;-67
2021/07/06 10:02:42;;;;;;;37.63;34.33;;;9.30;99.90;;;;;;5035158;28;20033;-67
2021/07/06 10:05:14;;;;;;;33.05;30.20;;;9.30;99.90;;;;;;5035058;28;20049;-67
2021/07/06 10:07:42;;;;;;;37.58;34.28;;;9.30;99.90;;;;;;5035029;28;20116;-67
2021/07/06 10:10:19;;;;;;;40.53;37.03;;;9.30;99.90;;;;;;5034717;28;20209;-67
2021/07/06 10:12:48;;;;;;;41.20;37.88;;;9.20;99.90;;;;;;5034811;28;20022;-67
2021/07/06 10:15:21;;;;;;;37.85;34.85;;;9.20;99.90;;;;;;5034757;28;20376;-67
2021/07/06 10:17:51;;;;;;;38.63;35.63;;;9.20;99.90;;;;;;5034631;28;20077;-67
2021/07/06 10:20:27;;;;;;;38.45;35.25;;;9.10;99.90;;;;;;5034930;28;20029;-67
2021/07/06 10:22:57;;;;;;;41.47;37.97;;;9.10;99.90;;;;;;5034720;28;20033;-66
2021/07/06 10:25:35;;;;;;;46.42;42.55;;;9.00;99.90;;;;;;5034821;28;20498;-65
2021/07/06 10:28:11;;;;;;;44.25;40.55;;;9.00;99.90;;;;;;5033141;28;20037;-66
2021/07/06 10:30:44;;;;;;;41.85;38.58;;;8.90;99.90;;;;;;5033105;28;20037;-65
2021/07/06 10:33:36;;;;;;;44.40;41.10;;;8.80;99.90;;;;;;5034481;28;20028;-65
2021/07/06 10:36:04;;;;;;;43.97;40.38;;;8.80;99.90;;;;;;5034199;28;20056;-66
2021/07/06 10:38:32;;;;;;;45.22;41.53;;;8.80;99.90;;;;;;5034377;28;20025;-66
2021/07/06 10:41:05;;;;;;;43.50;39.83;;;8.70;99.90;;;;;;5034244;28;20056;-65
2021/07/06 10:43:44;;;;;;;43.63;40.33;;;8.60;99.90;;;;;;5034393;28;20394;-66
2021/07/06 10:46:14;;;;;;;43.17;39.97;;;8.60;99.90;;;;;;5034238;28;20036;-65
2021/07/06 10:48:58;;;;;;;42.70;39.60;;;8.50;99.90;;;;;;5034485;28;20033;-66
2021/07/06 10:51:35;;;;;;;92.78;82.63;;;8.50;99.90;;;;;;5034201;28;20096;-66
2021/07/06 10:54:19;;;;;;;62.42;56.28;;;8.40;99.90;;;;;;5034026;28;20390;-66
2021/07/06 10:56:49;;;;;;;68.95;62.03;;;8.40;99.90;;;;;;5034109;28;20431;-66
2021/07/06 10:59:31;;;;;;;61.53;55.53;;;8.20;99.90;;;;;;5033949;28;20498;-66
2021/07/06 11:02:07;;;;;;;53.50;49.22;;;8.20;99.90;;;;;;5034252;28;20067;-66
2021/07/06 11:04:42;;;;;;;50.65;46.63;;;8.20;99.90;;;;;;5033864;28;20050;-66
2021/07/06 11:07:32;;;;;;;64.85;58.10;;;8.20;99.90;;;;;;5033068;28;20042;-66
2021/07/06 11:10:00;;;;;;;59.67;54.30;;;8.20;99.90;;;;;;5033192;28;20510;-65
2021/07/06 11:12:37;;;;;;;61.22;55.35;;;8.10;99.90;;;;;;5033566;28;20049;-65
2021/07/06 11:15:13;;;;;;;60.38;54.60;;;8.10;99.90;;;;;;5033839;28;20017;-64
2021/07/06 11:17:49;;;;;;;59.30;54.25;;;8.10;99.90;;;;;;5033941;28;20025;-65
2021/07/06 11:20:40;;;;;;;55.72;51.33;;;8.00;99.90;;;;;;5033940;28;20505;-66
2021/07/06 11:23:11;;;;;;;;;;;8.00;99.90;;;;;;5033746;28;20120;-65
2021/07/06 11:25:41;;;;;;;56.92;52.33;;;7.90;99.90;;;;;;5032359;28;19996;-65
2021/07/06 11:28:25;;;;;;;58.67;53.72;;;8.00;99.90;;;;;;5033391;28;20033;-65
2021/07/06 11:30:55;;;;;;;56.45;51.83;;;8.00;99.90;;;;;;5033361;28;20478;-65
2021/07/06 11:33:24;;;;;;;56.60;51.95;;;8.00;99.90;;;;;;5033473;28;20025;-65
2021/07/06 11:36:01;;;;;;;51.80;47.53;;;8.00;99.90;;;;;;5033296;28;20441;-64
2021/07/06 11:38:28;;;;;;;51.63;47.13;;;8.00;99.90;;;;;;5032120;28;20056;-64
2021/07/06 11:41:01;;;;;;;50.80;46.80;;;8.00;99.90;;;;;;5033303;28;20026;-64
2021/07/06 11:43:30;;;;;;;50.10;46.22;;;7.90;99.90;;;;;;5033258;28;20087;-63
2021/07/06 11:46:06;;;;;;;50.08;46.47;;;8.00;99.90;;;;;;5033119;28;20059;-64
2021/07/06 11:48:36;;;;;;;50.78;46.42;;;8.00;99.90;;;;;;5033001;28;20025;-63
2021/07/06 11:51:08;;;;;;;51.97;47.88;;;8.00;99.90;;;;;;5033087;28;20548;-63
2021/07/06 11:53:38;;;;;;;50.50;46.88;;;7.90;99.90;;;;;;5033113;28;20048;-63
2021/07/06 11:56:08;;;;;;;50.30;46.57;;;7.90;99.90;;;;;;5033154;28;20025;-67
2021/07/06 11:58:36;;;;;;;52.15;48.53;;;8.00;99.90;;;;;;5033227;28;20017;-67
2021/07/06 12:01:11;;;;;;;47.47;44.05;;;8.10;99.90;;;;;;5032094;28;20029;-66
2021/07/06 12:03:39;;;;;;;47.92;44.50;;;8.30;99.90;;;;;;5032710;28;20056;-66
2021/07/06 12:06:10;;;;;;;51.40;47.33;;;8.60;99.90;;;;;;5032046;28;20029;-67
2021/07/06 12:08:43;;;;;;;49.53;45.70;;;9.00;99.90;;;;;;5033640;28;20466;-66
2021/07/06 12:11:27;;;;;;;50.30;46.58;;;9.10;99.90;;;;;;5032960;28;20033;-66
2021/07/06 12:13:57;;;;;;;49.85;46.25;;;9.10;99.90;;;;;;5032835;28;20113;-66
2021/07/06 12:16:38;;;;;;;48.72;45.22;;;9.10;99.90;;;;;;5032768;28;20026;-66
2021/07/06 12:19:11;;;;;;;;;;;9.10;99.90;;;;;;5035412;28;20026;-66
2021/07/06 12:21:40;;;;;;;50.83;47.15;;;9.20;99.90;;;;;;5036875;28;20262;-66
2021/07/06 12:24:16;;;;;;;51.95;48.20;;;9.10;99.90;;;;;;5036849;28;20049;-67
2021/07/06 12:26:49;;;;;;;50.08;46.30;;;9.00;99.90;;;;;;5036742;28;20056;-67
2021/07/06 12:29:39;;;;;;;47.97;44.47;;;8.90;99.90;;;;;;5037035;28;20478;-67
2021/07/06 12:32:14;;;;;;;49.90;46.40;;;8.90;99.90;;;;;;5036765;28;20029;-67
2021/07/06 12:34:46;;;;;;;50.22;46.45;;;8.80;99.90;;;;;;5036716;28;20021;-66
2021/07/06 12:37:17;;;;;;;47.53;44.13;;;8.70;99.90;;;;;;5036952;28;20101;-67
2021/07/06 12:39:46;;;;;;;50.03;46.75;;;8.70;99.90;;;;;;5035668;28;20033;-67
2021/07/06 12:42:19;;;;;;;47.20;43.97;;;8.70;99.90;;;;;;5036610;28;20478;-67
2021/07/06 12:44:58;;;;;;;50.08;46.67;;;8.70;99.90;;;;;;5036656;28;20029;-67
2021/07/06 12:47:40;;;;;;;47.03;43.90;;;8.70;99.90;;;;;;5036626;28;20026;-66
2021/07/06 12:50:13;;;;;;;50.75;47.55;;;8.70;99.90;;;;;;5036365;28;20032;-67
2021/07/06 12:52:42;;;;;;;50.40;47.20;;;8.80;99.90;;;;;;5036542;28;20336;-67
2021/07/06 12:55:12;;;;;;;49.08;46.03;;;8.80;99.90;;;;;;5034936;28;20425;-66
2021/07/06 12:57:42;;;;;;;51.05;47.65;;;8.80;99.90;;;;;;5036588;28;20017;-67